Time;durP1;ratioP1;P1;durP2;ratioP2;P2;SDS_P1;SDS_P2;PMS_P1;PMS_P2;Temp;Humidity;BMP_temperature;BMP_pressure;BME280_temperature;BME280_humidity;BME280_pressure;Samples;Min_cycle;Max_cycle;Signal;HPM_P1;HPM_P2
2022/08/20 00:00:07;;;;;;;3.33;2.17;;;22.00;74.90;;;;;;5038324;28;20455;-71
2022/08/20 00:02:49;;;;;;;4.13;2.30;;;22.00;75.20;;;;;;5043501;28;20658;-71
2022/08/20 00:05:23;;;;;;;3.27;2.40;;;22.00;75.10;;;;;;5035121;28;20470;-70
2022/08/20 00:07:49;;;;;;;3.57;1.97;;;21.90;75.50;;;;;;5042555;28;20458;-70
2022/08/20 00:10:15;;;;;;;3.57;1.90;;;21.90;75.90;;;;;;5032875;28;20889;-71
2022/08/20 00:12:46;;;;;;;3.20;2.00;;;21.80;76.20;;;;;;5041724;28;20267;-71
2022/08/20 00:15:13;;;;;;;3.00;2.40;;;21.70;76.50;;;;;;5035960;28;20290;-70
2022/08/20 00:17:39;;;;;;;2.23;1.70;;;21.70;76.70;;;;;;5039954;28;20426;-71
2022/08/20 00:20:09;;;;;;;3.77;1.93;;;21.70;76.80;;;;;;5045123;28;20565;-71
2022/08/20 00:22:35;;;;;;;3.70;2.20;;;21.70;76.80;;;;;;5043044;28;20822;-70
2022/08/20 00:25:01;;;;;;;3.83;2.17;;;21.60;76.80;;;;;;5049208;28;20479;-71
2022/08/20 00:27:27;;;;;;;2.70;1.90;;;21.60;77.10;;;;;;5042508;28;20434;-71
2022/08/20 00:29:52;;;;;;;6.80;2.20;;;21.50;77.40;;;;;;5041564;28;20461;-71
2022/08/20 00:32:18;;;;;;;3.13;2.00;;;21.50;77.40;;;;;;5042240;28;20216;-71
2022/08/20 00:34:44;;;;;;;2.60;2.07;;;21.50;77.60;;;;;;5045145;28;20244;-71
2022/08/20 00:37:09;;;;;;;3.10;2.00;;;21.50;77.60;;;;;;5037787;28;20676;-71
2022/08/20 00:39:35;;;;;;;3.87;2.20;;;21.50;77.70;;;;;;5039414;28;20251;-70
2022/08/20 00:42:01;;;;;;;3.53;2.17;;;21.40;78.00;;;;;;5038741;28;20201;-70
2022/08/20 00:44:27;;;;;;;3.00;2.00;;;21.40;78.10;;;;;;5043296;28;20191;-71
2022/08/20 00:46:53;;;;;;;2.80;2.10;;;21.40;78.30;;;;;;5039416;28;20454;-71
2022/08/20 00:49:28;;;;;;;3.93;2.20;;;21.40;78.40;;;;;;5041023;28;20534;-72
2022/08/20 00:52:02;;;;;;;2.60;1.70;;;21.40;78.30;;;;;;5035919;28;20248;-70
2022/08/20 00:54:33;;;;;;;4.27;2.13;;;21.30;78.40;;;;;;5042231;28;20426;-71
2022/08/20 00:57:06;;;;;;;2.63;1.90;;;21.40;78.30;;;;;;5034691;28;20985;-71
2022/08/20 00:59:36;;;;;;;2.70;1.87;;;21.40;78.30;;;;;;5039772;28;20461;-73
2022/08/20 01:02:03;;;;;;;2.30;2.00;;;21.30;78.40;;;;;;5042214;28;20977;-70
2022/08/20 01:04:32;;;;;;;5.20;2.10;;;21.40;78.30;;;;;;5046015;28;20435;-72
2022/08/20 01:06:58;;;;;;;5.20;1.77;;;21.30;78.40;;;;;;5042335;28;20440;-70
2022/08/20 01:09:25;;;;;;;3.00;1.87;;;21.30;78.30;;;;;;5037445;28;20490;-70
2022/08/20 01:11:50;;;;;;;3.00;1.90;;;21.40;78.10;;;;;;5040393;28;20975;-71
2022/08/20 01:16:43;;;;;;;5.70;2.13;;;21.50;77.80;;;;;;5039564;28;20205;-70
2022/08/20 01:19:12;;;;;;;2.60;1.77;;;21.50;77.70;;;;;;5045309;28;20253;-70
2022/08/20 01:21:38;;;;;;;2.77;1.67;;;21.50;78.00;;;;;;5046451;28;20437;-71
2022/08/20 01:24:19;;;;;;;3.60;2.60;;;21.40;78.10;;;;;;5051926;28;20429;-70
2022/08/20 01:26:47;;;;;;;3.67;2.50;;;21.40;78.40;;;;;;5034328;28;20210;-71
2022/08/20 01:29:17;;;;;;;2.20;1.90;;;21.40;78.30;;;;;;5045541;28;20466;-70
2022/08/20 01:31:44;;;;;;;2.70;2.07;;;21.40;78.30;;;;;;5043602;28;20418;-71
2022/08/20 01:34:13;;;;;;;2.90;1.93;;;21.40;78.30;;;;;;5038542;28;20465;-71
2022/08/20 01:36:43;;;;;;;3.17;2.07;;;21.40;78.10;;;;;;5048670;28;20932;-70
2022/08/20 01:39:14;;;;;;;2.73;1.93;;;21.40;78.10;;;;;;5039726;28;20457;-70
2022/08/20 01:42:01;;;;;;;3.77;1.77;;;21.40;78.40;;;;;;5046807;28;20928;-71
2022/08/20 01:44:28;;;;;;;3.53;1.93;;;21.40;78.30;;;;;;5037887;28;20452;-70
2022/08/20 01:46:54;;;;;;;2.67;2.00;;;21.50;78.10;;;;;;5045132;28;20480;-69
2022/08/20 01:49:28;;;;;;;3.30;1.93;;;21.50;78.00;;;;;;5042591;28;20468;-70
2022/08/20 01:51:57;;;;;;;3.40;2.40;;;21.50;78.00;;;;;;5047466;28;20525;-70
2022/08/20 01:54:24;;;;;;;5.40;1.70;;;21.40;78.40;;;;;;5047912;28;20429;-70
2022/08/20 01:57:12;;;;;;;1.70;1.60;;;21.50;78.40;;;;;;5041436;28;20984;-70
2022/08/20 01:59:39;;;;;;;3.77;2.10;;;21.50;78.10;;;;;;5045619;28;20464;-71
2022/08/20 02:02:05;;;;;;;2.40;1.77;;;21.50;77.80;;;;;;5035855;28;20445;-69
2022/08/20 02:04:32;;;;;;;3.53;1.83;;;21.50;78.10;;;;;;5043038;28;20437;-71
2022/08/20 02:07:03;;;;;;;5.10;2.50;;;21.60;78.00;;;;;;5038801;28;20472;-70
2022/08/20 02:09:31;;;;;;;2.53;1.77;;;21.60;78.00;;;;;;5046481;28;20531;-69
2022/08/20 02:11:57;;;;;;;2.53;1.90;;;21.60;77.70;;;;;;5036757;28;20422;-70
2022/08/20 02:14:24;;;;;;;2.20;1.80;;;21.60;78.00;;;;;;5043481;28;20488;-70
2022/08/20 02:16:49;;;;;;;3.20;1.67;;;21.70;77.70;;;;;;5051212;28;20685;-70
2022/08/20 02:19:44;;;;;;;3.20;2.17;;;21.80;77.40;;;;;;5050544;28;20542;-69
2022/08/20 02:22:22;;;;;;;2.17;1.73;;;21.70;77.60;;;;;;5041171;28;20623;-71
2022/08/20 02:24:48;;;;;;;1.93;1.53;;;21.70;77.70;;;;;;5049392;28;20473;-71
2022/08/20 02:27:14;;;;;;;2.50;1.83;;;21.70;77.60;;;;;;5048241;28;20935;-70
2022/08/20 02:29:40;;;;;;;3.37;2.00;;;21.60;77.60;;;;;;5040183;28;20215;-70
2022/08/20 02:32:07;;;;;;;2.80;1.80;;;21.60;78.00;;;;;;5039242;28;20840;-69
2022/08/20 02:34:34;;;;;;;2.50;1.93;;;21.60;78.10;;;;;;5040369;28;20230;-71
2022/08/20 02:37:00;;;;;;;3.20;1.77;;;21.60;78.10;;;;;;5045846;28;20513;-70
2022/08/20 02:39:26;;;;;;;3.77;1.83;;;21.60;78.60;;;;;;5041900;28;20542;-71
2022/08/20 02:41:52;;;;;;;1.93;1.70;;;21.60;78.60;;;;;;5045181;28;20833;-72
2022/08/20 02:44:20;;;;;;;2.67;2.13;;;21.60;78.60;;;;;;5033188;28;20196;-70
2022/08/20 02:46:48;;;;;;;2.90;2.20;;;21.60;78.10;;;;;;5045081;28;20560;-70
2022/08/20 02:49:16;;;;;;;2.63;1.80;;;21.60;78.10;;;;;;5040970;28;20464;-70
2022/08/20 02:51:42;;;;;;;2.33;2.10;;;21.60;78.40;;;;;;5037438;28;20459;-70
2022/08/20 02:54:08;;;;;;;2.23;1.70;;;21.60;78.40;;;;;;5036422;28;20788;-68
2022/08/20 02:56:34;;;;;;;2.33;1.57;;;21.50;78.70;;;;;;5038445;28;20449;-71
2022/08/20 02:58:59;;;;;;;4.77;2.10;;;21.40;78.70;;;;;;5037199;28;20244;-69
2022/08/20 03:01:26;;;;;;;1.93;1.70;;;21.50;78.70;;;;;;5045009;28;20725;-71
2022/08/20 03:03:51;;;;;;;2.80;2.03;;;21.50;78.60;;;;;;5039365;28;20546;-69
2022/08/20 03:06:17;;;;;;;3.33;2.30;;;21.50;78.70;;;;;;5042248;28;20670;-70
2022/08/20 03:08:43;;;;;;;3.07;2.00;;;21.40;78.70;;;;;;5037298;28;20683;-69
2022/08/20 03:11:09;;;;;;;3.93;2.23;;;21.30;79.30;;;;;;5043494;28;20182;-70
2022/08/20 03:13:36;;;;;;;2.13;1.80;;;21.30;79.50;;;;;;5038926;28;20436;-69
2022/08/20 03:16:02;;;;;;;4.80;1.97;;;21.20;79.70;;;;;;5043786;28;20189;-70
2022/08/20 03:18:37;;;;;;;3.27;2.33;;;21.20;79.90;;;;;;5038262;28;20932;-69
2022/08/20 03:21:05;;;;;;;4.20;2.13;;;21.20;79.90;;;;;;5047133;28;20420;-69
2022/08/20 03:23:31;;;;;;;2.13;1.77;;;21.20;80.00;;;;;;5044609;28;20914;-70
2022/08/20 03:25:57;;;;;;;5.20;2.30;;;21.20;80.20;;;;;;5039784;28;20579;-71
2022/08/20 03:28:23;;;;;;;3.43;1.90;;;21.10;80.20;;;;;;5041881;28;20552;-70
2022/08/20 03:30:50;;;;;;;3.60;2.50;;;21.00;80.60;;;;;;5043102;28;20190;-68
2022/08/20 03:33:16;;;;;;;3.13;2.50;;;21.00;80.60;;;;;;5043772;28;20425;-70
2022/08/20 03:35:42;;;;;;;3.23;2.47;;;21.00;80.80;;;;;;5038450;28;20426;-70
2022/08/20 03:38:10;;;;;;;3.70;2.70;;;21.00;80.80;;;;;;5047453;28;20772;-71
2022/08/20 03:40:37;;;;;;;2.73;2.30;;;21.00;81.10;;;;;;5047160;28;20272;-71
2022/08/20 03:43:05;;;;;;;4.60;3.00;;;21.00;80.90;;;;;;5048525;28;20507;-69
2022/08/20 03:45:31;;;;;;;2.67;2.50;;;21.10;80.80;;;;;;5039150;28;20555;-69
2022/08/20 03:47:57;;;;;;;4.17;3.30;;;21.10;80.80;;;;;;5048765;28;20515;-71
2022/08/20 03:50:26;;;;;;;3.03;2.57;;;21.10;80.80;;;;;;5034132;28;20935;-71
2022/08/20 03:52:52;;;;;;;3.17;2.77;;;21.10;80.80;;;;;;5043821;28;20504;-70
2022/08/20 03:55:19;;;;;;;3.30;2.77;;;21.10;80.60;;;;;;5043517;28;20422;-70
2022/08/20 03:57:48;;;;;;;3.67;2.80;;;21.10;80.60;;;;;;5041731;28;20428;-72
2022/08/20 04:00:18;;;;;;;5.17;3.00;;;21.10;80.50;;;;;;5042078;28;20464;-71
2022/08/20 04:02:43;;;;;;;3.67;2.93;;;21.20;80.60;;;;;;5042626;28;20941;-71
2022/08/20 04:05:09;;;;;;;3.03;2.77;;;21.20;80.50;;;;;;5037502;28;20460;-70
2022/08/20 04:07:36;;;;;;;7.20;3.10;;;21.10;80.60;;;;;;5043210;28;20584;-70
2022/08/20 04:10:05;;;;;;;6.10;3.13;;;21.10;80.80;;;;;;5039476;28;20213;-70
2022/08/20 04:12:30;;;;;;;3.87;3.17;;;21.10;80.80;;;;;;5038496;28;20428;-70
2022/08/20 04:14:56;;;;;;;3.60;3.13;;;21.00;80.90;;;;;;5042718;28;20998;-70
2022/08/20 04:17:22;;;;;;;4.10;3.20;;;20.90;81.40;;;;;;5044662;28;20190;-72
2022/08/20 04:19:47;;;;;;;3.47;3.30;;;20.90;81.70;;;;;;5043299;28;20241;-70
2022/08/20 04:22:13;;;;;;;5.17;3.53;;;20.90;81.70;;;;;;5042015;28;20428;-71
2022/08/20 04:24:41;;;;;;;5.00;3.17;;;20.90;81.80;;;;;;5049044;28;20254;-70
2022/08/20 04:27:07;;;;;;;5.13;3.87;;;20.90;81.80;;;;;;5040318;28;20427;-69
2022/08/20 04:29:33;;;;;;;3.80;3.63;;;21.00;81.80;;;;;;5038918;28;20480;-70
2022/08/20 04:32:00;;;;;;;3.90;3.50;;;20.90;81.80;;;;;;5041764;28;20512;-70
2022/08/20 04:34:27;;;;;;;4.60;3.53;;;21.00;81.80;;;;;;5041474;28;20463;-70
2022/08/20 04:36:53;;;;;;;9.03;3.97;;;21.00;81.90;;;;;;5039339;28;20440;-70
2022/08/20 04:39:18;;;;;;;6.77;3.63;;;21.00;81.90;;;;;;5040323;28;20464;-71
2022/08/20 04:41:44;;;;;;;4.53;4.20;;;20.90;82.40;;;;;;5042214;28;20672;-72
2022/08/20 04:44:10;;;;;;;5.00;3.67;;;20.80;83.00;;;;;;5042473;28;20315;-72
2022/08/20 04:46:37;;;;;;;5.90;3.57;;;20.80;83.30;;;;;;5042363;28;20762;-70
2022/08/20 04:49:03;;;;;;;4.47;4.17;;;20.80;83.70;;;;;;5043650;28;20485;-71
2022/08/20 04:51:30;;;;;;;10.20;4.80;;;20.70;84.30;;;;;;5035150;28;20453;-71
2022/08/20 04:53:56;;;;;;;5.63;4.20;;;20.60;84.60;;;;;;5038326;28;20447;-71
2022/08/20 04:56:24;;;;;;;6.47;4.47;;;20.50;85.20;;;;;;5039078;28;20792;-69
2022/08/20 04:58:51;;;;;;;7.70;4.90;;;20.50;85.50;;;;;;5040176;28;21199;-70
2022/08/20 05:01:16;;;;;;;8.93;5.07;;;20.50;85.50;;;;;;5037355;28;20425;-70
2022/08/20 05:03:42;;;;;;;6.40;4.37;;;20.50;85.60;;;;;;5042130;28;20424;-71
2022/08/20 05:06:10;;;;;;;4.87;4.30;;;20.60;85.30;;;;;;5038906;28;20211;-71
2022/08/20 05:08:37;;;;;;;4.90;4.13;;;20.60;85.20;;;;;;5039067;28;20820;-69
2022/08/20 05:11:04;;;;;;;5.13;4.30;;;20.50;84.90;;;;;;5045911;28;20455;-70
2022/08/20 05:13:29;;;;;;;5.00;4.63;;;20.60;84.90;;;;;;5045467;28;21120;-69
2022/08/20 05:15:56;;;;;;;7.33;4.33;;;20.60;84.90;;;;;;5040652;28;20471;-71
2022/08/20 05:18:25;;;;;;;6.83;4.50;;;20.70;84.70;;;;;;5040722;28;20235;-70
2022/08/20 05:20:51;;;;;;;5.53;4.40;;;20.60;84.60;;;;;;5043714;28;20925;-69
2022/08/20 05:23:18;;;;;;;7.20;4.90;;;20.60;84.60;;;;;;5039307;28;20426;-70
2022/08/20 05:25:48;;;;;;;6.80;4.87;;;20.60;84.40;;;;;;5042869;28;20944;-71
2022/08/20 05:28:21;;;;;;;7.40;4.77;;;20.60;84.60;;;;;;5039740;28;20553;-69
2022/08/20 05:30:48;;;;;;;5.70;4.90;;;20.60;84.60;;;;;;5042078;28;20421;-71
2022/08/20 05:33:17;;;;;;;6.40;4.63;;;20.60;84.40;;;;;;5033449;28;20839;-69
2022/08/20 05:35:43;;;;;;;5.43;4.50;;;20.60;84.30;;;;;;5040371;28;20415;-72
2022/08/20 05:38:11;;;;;;;5.93;4.70;;;20.60;84.60;;;;;;5035836;28;20765;-69
2022/08/20 05:40:39;;;;;;;5.27;4.37;;;20.60;84.70;;;;;;5040121;28;20433;-69
2022/08/20 05:43:05;;;;;;;5.73;4.60;;;20.60;84.60;;;;;;5051252;28;20493;-69
2022/08/20 05:45:32;;;;;;;4.90;3.97;;;20.70;84.40;;;;;;5038188;28;20891;-70
2022/08/20 05:47:58;;;;;;;7.20;4.60;;;20.60;84.40;;;;;;5053950;28;20960;-70
2022/08/20 05:50:24;;;;;;;6.20;4.60;;;20.70;84.30;;;;;;5066386;28;20464;-70
2022/08/20 05:52:50;;;;;;;7.23;4.20;;;20.80;84.10;;;;;;5050295;28;20424;-70
2022/08/20 05:55:16;;;;;;;5.60;4.37;;;20.80;84.10;;;;;;5046818;28;20457;-70
2022/08/20 05:57:41;;;;;;;5.40;4.40;;;20.80;84.00;;;;;;5043571;28;20431;-72
2022/08/20 06:00:12;;;;;;;6.50;4.50;;;20.80;84.00;;;;;;5040955;28;20217;-70
2022/08/20 06:05:23;;;;;;;6.23;5.10;;;20.90;83.60;;;;;;5036953;28;20467;-70
2022/08/20 06:07:49;;;;;;;5.20;4.73;;;21.00;83.40;;;;;;5037665;28;20420;-70
2022/08/20 06:10:15;;;;;;;4.77;4.33;;;21.00;83.10;;;;;;5041057;28;20452;-71
2022/08/20 06:12:43;;;;;;;5.50;4.20;;;21.00;83.30;;;;;;5047558;28;20430;-70
2022/08/20 06:15:09;;;;;;;5.60;4.97;;;21.10;83.10;;;;;;5045539;28;20418;-70
2022/08/20 06:17:34;;;;;;;5.57;4.40;;;21.20;82.80;;;;;;5041184;28;20454;-70
2022/08/20 06:20:05;;;;;;;7.10;4.53;;;21.30;82.40;;;;;;5037557;28;20960;-70
2022/08/20 06:22:30;;;;;;;7.77;4.23;;;21.30;82.20;;;;;;5039617;28;20193;-70
2022/08/20 06:24:56;;;;;;;7.60;4.50;;;21.40;82.10;;;;;;5043971;28;20464;-70
2022/08/20 06:27:22;;;;;;;7.63;4.83;;;21.40;81.80;;;;;;5045073;28;20190;-70
2022/08/20 06:29:49;;;;;;;9.17;4.90;;;21.30;82.10;;;;;;5043357;28;20210;-71
2022/08/20 06:32:15;;;;;;;5.13;4.13;;;21.30;82.40;;;;;;5041512;28;20430;-70
2022/08/20 06:34:41;;;;;;;5.70;4.53;;;21.30;82.40;;;;;;5033953;28;20433;-70
2022/08/20 06:37:18;;;;;;;4.77;4.53;;;21.40;81.90;;;;;;5039143;28;20426;-70
2022/08/20 06:39:44;;;;;;;5.93;4.90;;;21.40;81.90;;;;;;5038463;28;20203;-71
2022/08/20 06:42:10;;;;;;;6.87;4.50;;;21.40;82.20;;;;;;5043370;28;20432;-71
2022/08/20 06:44:36;;;;;;;5.80;4.37;;;21.40;82.10;;;;;;5031595;28;20222;-70
2022/08/20 06:47:04;;;;;;;9.63;4.97;;;21.40;81.90;;;;;;5041036;28;20795;-71
2022/08/20 06:49:32;;;;;;;6.37;4.60;;;21.40;82.10;;;;;;5039940;28;20490;-70
2022/08/20 06:51:58;;;;;;;5.20;4.20;;;21.40;82.20;;;;;;5045089;28;20418;-69
2022/08/20 06:54:24;;;;;;;6.17;5.10;;;21.50;82.10;;;;;;5043800;28;20431;-71
2022/08/20 06:56:52;;;;;;;5.87;4.90;;;21.50;82.10;;;;;;5037125;28;20283;-70
2022/08/20 06:59:18;;;;;;;6.03;4.53;;;21.40;82.10;;;;;;5044911;28;20241;-70
2022/08/20 07:01:43;;;;;;;5.60;4.23;;;21.40;82.20;;;;;;5037794;28;20790;-70
2022/08/20 07:04:09;;;;;;;6.40;4.50;;;21.40;82.70;;;;;;5047794;28;20229;-72
2022/08/20 07:06:35;;;;;;;5.30;4.17;;;21.50;82.20;;;;;;5038674;28;20950;-70
2022/08/20 07:09:00;;;;;;;5.20;4.23;;;21.60;81.90;;;;;;5036405;28;20205;-69
2022/08/20 07:11:26;;;;;;;6.47;4.80;;;21.50;81.70;;;;;;5036021;28;20541;-70
2022/08/20 07:13:52;;;;;;;6.67;4.47;;;21.30;82.20;;;;;;5045405;28;20259;-70
2022/08/20 07:16:18;;;;;;;10.17;4.97;;;21.40;82.40;;;;;;5044144;28;20903;-70
2022/08/20 07:18:43;;;;;;;6.30;4.43;;;21.40;82.20;;;;;;5037413;28;20221;-69
2022/08/20 07:21:10;;;;;;;6.00;4.33;;;21.50;81.90;;;;;;5045864;28;20195;-70
2022/08/20 07:23:36;;;;;;;7.87;4.60;;;21.50;81.80;;;;;;5043876;28;20270;-70
2022/08/20 07:26:02;;;;;;;5.83;4.50;;;21.40;81.90;;;;;;5044494;28;20562;-70
2022/08/20 07:28:30;;;;;;;6.73;4.60;;;21.40;82.40;;;;;;5041154;28;20249;-70
2022/08/20 07:33:41;;;;;;;4.90;4.17;;;21.70;82.10;;;;;;5039228;28;20422;-71
2022/08/20 07:36:08;;;;;;;5.07;4.10;;;22.00;80.50;;;;;;5040536;28;20438;-71
2022/08/20 07:38:34;;;;;;;6.27;4.17;;;22.20;79.60;;;;;;5036797;28;21283;-72
2022/08/20 07:41:11;;;;;;;5.53;4.30;;;22.20;79.30;;;;;;5034336;28;20426;-70
2022/08/20 07:43:38;;;;;;;5.43;4.37;;;22.20;79.00;;;;;;5040065;28;20429;-70
2022/08/20 07:46:07;;;;;;;5.80;4.40;;;22.30;79.20;;;;;;5041074;28;20533;-71
2022/08/20 07:48:38;;;;;;;8.50;4.60;;;22.30;79.20;;;;;;5042204;28;20454;-70
2022/08/20 07:51:05;;;;;;;7.20;4.53;;;22.40;78.70;;;;;;5041151;28;20505;-72
2022/08/20 07:53:33;;;;;;;7.80;4.17;;;22.50;78.30;;;;;;5042091;28;20929;-70
2022/08/20 07:56:01;;;;;;;7.67;4.40;;;22.50;77.80;;;;;;5041694;28;20453;-71
2022/08/20 07:58:26;;;;;;;7.70;4.70;;;22.50;78.10;;;;;;5042236;28;20813;-70
2022/08/20 08:00:52;;;;;;;6.07;4.30;;;22.60;78.00;;;;;;5045814;28;20437;-70
2022/08/20 08:03:18;;;;;;;4.50;3.77;;;22.70;77.80;;;;;;5036914;28;20184;-70
2022/08/20 08:05:47;;;;;;;6.07;4.40;;;22.80;77.30;;;;;;5044300;28;20212;-70
2022/08/20 08:08:17;;;;;;;4.80;4.23;;;22.80;77.00;;;;;;5037446;28;20228;-71
2022/08/20 08:10:45;;;;;;;6.80;3.80;;;22.80;77.30;;;;;;5045347;28;20441;-70
2022/08/20 08:13:13;;;;;;;14.40;4.40;;;22.90;77.00;;;;;;5038995;28;20831;-70
2022/08/20 08:15:43;;;;;;;4.90;4.10;;;23.00;76.70;;;;;;5042919;28;20533;-70
2022/08/20 08:18:20;;;;;;;4.90;4.20;;;22.90;76.50;;;;;;5044911;28;20456;-70
2022/08/20 08:20:51;;;;;;;5.07;4.43;;;23.00;76.70;;;;;;5046138;28;20433;-70
2022/08/20 08:23:19;;;;;;;4.97;4.20;;;23.10;76.20;;;;;;5040062;28;20422;-70
2022/08/20 08:25:44;;;;;;;4.90;3.87;;;23.20;75.80;;;;;;5038543;28;20471;-70
2022/08/20 08:28:11;;;;;;;5.97;4.40;;;23.30;75.80;;;;;;5041322;28;20413;-71
2022/08/20 08:30:47;;;;;;;7.80;4.30;;;23.40;74.80;;;;;;5039567;28;20691;-70
2022/08/20 08:33:27;;;;;;;6.63;4.47;;;23.50;74.60;;;;;;5055138;28;20878;-71
2022/08/20 08:35:55;;;;;;;6.27;4.37;;;23.60;74.30;;;;;;5065167;28;20425;-70
2022/08/20 08:38:22;;;;;;;6.47;4.90;;;23.30;74.80;;;;;;5071307;28;21289;-71
2022/08/20 08:40:50;;;;;;;7.90;5.27;;;23.10;75.90;;;;;;5060962;28;20462;-70
2022/08/20 08:43:18;;;;;;;5.27;4.53;;;22.80;77.30;;;;;;5047267;28;20476;-70
2022/08/20 08:45:47;;;;;;;8.40;5.43;;;22.90;77.00;;;;;;5039421;28;20554;-72
2022/08/20 08:48:15;;;;;;;5.90;4.97;;;23.10;76.40;;;;;;5039568;28;20527;-70
2022/08/20 08:50:44;;;;;;;7.40;4.50;;;23.20;75.70;;;;;;5034789;28;20430;-71
2022/08/20 08:53:17;;;;;;;5.97;4.47;;;23.30;74.60;;;;;;5043654;28;20447;-70
2022/08/20 08:55:43;;;;;;;6.33;4.50;;;23.50;73.70;;;;;;5041320;28;20425;-70
2022/08/20 08:58:09;;;;;;;6.10;4.13;;;23.60;73.30;;;;;;5041223;28;20453;-70
2022/08/20 09:00:35;;;;;;;6.20;4.40;;;23.80;73.00;;;;;;5040613;28;20942;-70
2022/08/20 09:03:06;;;;;;;6.30;4.40;;;23.90;72.70;;;;;;5042261;28;20181;-70
2022/08/20 09:05:53;;;;;;;5.60;4.43;;;23.80;71.60;;;;;;5033442;28;20572;-70
2022/08/20 09:08:24;;;;;;;6.17;5.00;;;23.30;73.20;;;;;;5036932;28;21041;-70
2022/08/20 09:10:50;;;;;;;6.03;4.57;;;23.40;73.30;;;;;;5037689;28;20533;-73
2022/08/20 09:13:15;;;;;;;8.30;4.40;;;23.10;74.20;;;;;;5037893;28;20554;-71
2022/08/20 09:15:41;;;;;;;6.20;4.53;;;23.10;73.90;;;;;;5042982;28;20217;-70
2022/08/20 09:18:07;;;;;;;4.80;4.00;;;23.00;74.50;;;;;;5035851;28;20212;-71
2022/08/20 09:20:33;;;;;;;5.60;4.47;;;23.00;74.60;;;;;;5042640;28;20250;-70
2022/08/20 09:22:59;;;;;;;9.43;5.20;;;23.30;74.00;;;;;;5040414;28;20227;-70
2022/08/20 09:25:25;;;;;;;5.73;5.17;;;23.40;72.70;;;;;;5042092;28;20557;-71
2022/08/20 09:27:50;;;;;;;6.03;4.70;;;23.30;72.90;;;;;;5040065;28;20657;-70
2022/08/20 09:30:16;;;;;;;7.47;5.20;;;23.20;73.70;;;;;;5043664;28;20209;-71
2022/08/20 09:32:42;;;;;;;8.60;4.90;;;23.50;74.00;;;;;;5047499;28;20194;-71
2022/08/20 09:35:09;;;;;;;4.87;4.20;;;23.80;72.40;;;;;;5049541;28;20451;-71
2022/08/20 09:37:35;;;;;;;10.97;4.00;;;24.00;71.00;;;;;;5036159;28;20193;-71
2022/08/20 09:40:02;;;;;;;4.20;3.33;;;24.10;70.20;;;;;;5044065;28;20454;-71
2022/08/20 09:42:31;;;;;;;5.60;3.83;;;24.30;69.50;;;;;;5035072;28;20509;-71
2022/08/20 09:44:57;;;;;;;7.53;3.90;;;24.10;69.90;;;;;;5044319;28;20431;-70
2022/08/20 09:47:24;;;;;;;4.87;3.00;;;23.80;71.10;;;;;;5039320;28;20921;-70
2022/08/20 09:49:50;;;;;;;6.20;3.10;;;23.30;71.80;;;;;;5042360;28;20473;-71
2022/08/20 09:52:28;;;;;;;3.47;2.40;;;23.40;72.30;;;;;;5031741;28;20432;-69
2022/08/20 09:55:13;;;;;;;4.13;2.83;;;23.50;70.70;;;;;;5039622;28;20666;-69
2022/08/20 09:57:39;;;;;;;3.17;2.60;;;23.30;72.00;;;;;;5036430;28;20433;-74
2022/08/20 10:00:08;;;;;;;3.20;2.90;;;23.30;72.40;;;;;;5036129;28;20476;-71
2022/08/20 10:02:34;;;;;;;5.33;3.00;;;23.50;72.10;;;;;;5049668;28;20192;-71
2022/08/20 10:04:59;;;;;;;3.40;2.67;;;23.30;72.70;;;;;;5042638;28;20428;-72
2022/08/20 10:07:25;;;;;;;3.43;2.60;;;23.20;72.10;;;;;;5042035;28;20477;-72
2022/08/20 10:09:51;;;;;;;4.63;2.60;;;23.30;72.60;;;;;;5037857;28;20755;-71
2022/08/20 10:12:16;;;;;;;6.20;3.23;;;23.50;71.40;;;;;;5039332;28;20190;-72
2022/08/20 10:14:42;;;;;;;2.60;2.10;;;23.70;70.50;;;;;;5040311;28;20186;-72
2022/08/20 10:17:08;;;;;;;3.47;2.00;;;23.70;70.50;;;;;;5046796;28;20193;-68
2022/08/20 10:19:33;;;;;;;2.80;2.27;;;23.20;71.30;;;;;;5040662;28;20245;-69
2022/08/20 10:21:59;;;;;;;3.00;2.83;;;23.20;72.10;;;;;;5044158;28;20435;-71
2022/08/20 10:24:25;;;;;;;5.70;3.30;;;23.20;72.30;;;;;;5038371;28;20197;-70
2022/08/20 10:26:55;;;;;;;3.57;3.27;;;23.10;73.20;;;;;;5043436;28;20224;-71
2022/08/20 10:29:21;;;;;;;3.37;3.10;;;23.20;73.60;;;;;;5040429;28;20960;-70
2022/08/20 10:31:46;;;;;;;3.60;2.83;;;23.20;74.60;;;;;;5040271;28;20436;-71
2022/08/20 10:34:12;;;;;;;2.63;2.10;;;23.20;74.20;;;;;;5036926;28;20188;-70
2022/08/20 10:36:37;;;;;;;1.90;1.80;;;23.10;73.70;;;;;;5043323;28;20185;-70
2022/08/20 10:39:03;;;;;;;1.87;1.40;;;23.10;73.50;;;;;;5038944;28;20213;-71
2022/08/20 10:41:29;;;;;;;2.50;1.90;;;23.00;73.30;;;;;;5037445;28;20198;-70
2022/08/20 10:43:54;;;;;;;2.90;1.77;;;23.00;73.60;;;;;;5033583;28;20818;-71
2022/08/20 10:46:20;;;;;;;2.00;1.90;;;23.10;73.30;;;;;;5042070;28;20324;-70
2022/08/20 10:48:45;;;;;;;2.00;1.57;;;23.00;73.60;;;;;;5045638;28;20210;-72
2022/08/20 10:51:11;;;;;;;3.10;1.60;;;23.30;72.60;;;;;;5045324;28;20196;-72
2022/08/20 10:53:37;;;;;;;2.10;1.77;;;23.80;70.50;;;;;;5040848;28;20238;-69
2022/08/20 10:56:03;;;;;;;2.33;1.80;;;23.50;71.40;;;;;;5044714;28;20187;-69
2022/08/20 10:58:30;;;;;;;2.90;1.97;;;23.70;71.30;;;;;;5035079;28;20485;-71
2022/08/20 11:00:55;;;;;;;3.10;2.20;;;23.90;70.80;;;;;;5038957;28;20434;-71
2022/08/20 11:03:21;;;;;;;1.70;1.63;;;23.80;71.10;;;;;;5040050;28;21988;-70
2022/08/20 11:05:47;;;;;;;2.20;1.70;;;23.40;72.00;;;;;;5044006;28;20214;-70
2022/08/20 11:08:12;;;;;;;3.63;2.20;;;23.20;72.40;;;;;;5040012;28;20194;-70
2022/08/20 11:10:38;;;;;;;1.80;1.80;;;23.30;73.00;;;;;;5033781;28;20197;-71
2022/08/20 11:13:06;;;;;;;3.90;1.63;;;23.60;72.30;;;;;;5045221;28;20255;-70
2022/08/20 11:15:35;;;;;;;1.73;1.53;;;23.80;70.50;;;;;;5035668;28;20453;-70
2022/08/20 11:18:01;;;;;;;2.07;1.40;;;23.80;69.90;;;;;;5046287;28;20441;-69
2022/08/20 11:20:26;;;;;;;2.10;1.20;;;23.60;69.20;;;;;;5037484;28;20449;-69
2022/08/20 11:22:53;;;;;;;2.67;1.57;;;23.50;69.10;;;;;;5041131;28;20195;-71
2022/08/20 11:25:19;;;;;;;2.37;1.40;;;23.40;69.10;;;;;;5036840;28;20659;-70
2022/08/20 11:27:47;;;;;;;2.53;1.33;;;23.10;70.10;;;;;;5042505;28;20508;-70
2022/08/20 11:30:18;;;;;;;1.60;1.30;;;23.20;70.10;;;;;;5040755;28;20464;-69
2022/08/20 11:32:44;;;;;;;6.80;1.80;;;23.40;70.10;;;;;;5042643;28;20519;-71
2022/08/20 11:35:09;;;;;;;3.67;1.80;;;23.60;69.20;;;;;;5040462;28;20477;-70
2022/08/20 11:37:35;;;;;;;3.07;1.70;;;23.90;68.00;;;;;;5050250;28;20443;-71
2022/08/20 11:40:01;;;;;;;1.53;1.40;;;23.70;68.80;;;;;;5043313;28;20205;-71
2022/08/20 11:42:27;;;;;;;2.97;1.90;;;23.90;68.60;;;;;;5042521;28;20288;-72
2022/08/20 11:44:52;;;;;;;1.50;1.10;;;24.00;67.30;;;;;;5036306;28;20660;-70
2022/08/20 11:47:24;;;;;;;1.50;1.50;;;23.60;67.20;;;;;;5046350;28;20195;-70
2022/08/20 11:50:01;;;;;;;2.03;1.80;;;23.80;67.60;;;;;;5043867;28;20820;-70
2022/08/20 11:52:27;;;;;;;4.10;1.70;;;24.00;67.30;;;;;;5045546;28;20810;-71
2022/08/20 11:54:53;;;;;;;3.13;1.80;;;24.10;67.50;;;;;;5043435;28;20520;-71
2022/08/20 11:57:25;;;;;;;2.23;1.30;;;24.30;67.30;;;;;;5042960;28;20529;-71
2022/08/20 11:59:51;;;;;;;1.60;1.23;;;24.30;66.90;;;;;;5042440;28;20476;-72
2022/08/20 12:02:17;;;;;;;2.17;1.73;;;24.20;67.90;;;;;;5043778;28;20468;-71
2022/08/20 12:04:43;;;;;;;1.60;1.23;;;24.10;69.10;;;;;;5045938;28;20466;-70
2022/08/20 12:07:11;;;;;;;2.70;1.20;;;24.10;68.50;;;;;;5038081;28;20219;-71
2022/08/20 12:09:37;;;;;;;1.90;1.23;;;23.90;68.60;;;;;;5042414;28;20576;-71
2022/08/20 12:12:03;;;;;;;1.30;1.10;;;23.90;69.40;;;;;;5040268;28;20524;-70
2022/08/20 12:14:29;;;;;;;1.90;1.30;;;23.80;69.40;;;;;;5041891;28;20194;-70
2022/08/20 12:16:54;;;;;;;2.20;1.27;;;23.60;69.90;;;;;;5042125;28;20456;-71
2022/08/20 12:19:20;;;;;;;2.57;1.47;;;23.70;69.20;;;;;;5045083;28;20227;-69
2022/08/20 12:21:45;;;;;;;1.67;1.30;;;23.40;70.10;;;;;;5040400;28;20542;-69
2022/08/20 12:24:11;;;;;;;1.73;1.43;;;23.40;69.80;;;;;;5046717;28;20279;-71
2022/08/20 12:26:37;;;;;;;3.43;1.50;;;23.70;69.40;;;;;;5040553;28;20225;-71
2022/08/20 12:29:02;;;;;;;1.90;1.60;;;23.90;68.60;;;;;;5048833;28;20283;-72
2022/08/20 12:31:28;;;;;;;1.87;1.30;;;24.10;68.30;;;;;;5041850;28;20195;-72
2022/08/20 12:33:53;;;;;;;2.00;1.10;;;24.20;67.50;;;;;;5043717;28;20191;-70
2022/08/20 12:36:19;;;;;;;1.93;1.60;;;24.40;67.20;;;;;;5041147;28;20226;-72
2022/08/20 12:38:45;;;;;;;2.30;1.50;;;24.10;67.90;;;;;;5042334;28;20288;-72
2022/08/20 12:41:10;;;;;;;1.30;1.30;;;24.20;68.20;;;;;;5038978;28;20191;-71
2022/08/20 12:43:36;;;;;;;1.70;1.47;;;24.50;67.60;;;;;;5041370;28;20221;-70
2022/08/20 12:46:02;;;;;;;1.70;1.30;;;24.70;67.30;;;;;;5036846;28;20308;-70
2022/08/20 12:48:27;;;;;;;1.40;1.20;;;24.70;67.00;;;;;;5043082;28;20218;-70
2022/08/20 12:50:53;;;;;;;1.53;1.23;;;24.50;67.60;;;;;;5041502;28;20178;-69
2022/08/20 12:53:19;;;;;;;1.87;1.47;;;24.40;67.90;;;;;;5045083;28;20607;-69